createdAt,value
2022-11-21T00:00:30.130Z,77054.69
2022-11-21T00:03:01.426Z,77064.34
2022-11-21T00:05:31.541Z,77072.03
2022-11-21T00:07:58.533Z,77070.13
2022-11-21T00:10:25.917Z,77075.91
2022-11-21T00:12:56.333Z,77079.75
2022-11-21T00:15:23.802Z,77077.81
2022-11-21T00:17:50.964Z,77081.69
2022-11-21T00:20:18.275Z,77083.59
2022-11-21T00:22:44.831Z,77091.31
2022-11-21T00:25:11.703Z,77091.31
2022-11-21T00:27:38.236Z,77104.81
2022-11-21T00:30:05.622Z,77126.00
2022-11-21T00:32:32.288Z,77122.16
2022-11-21T00:34:58.784Z,77126.00
2022-11-21T00:37:25.343Z,77120.22
2022-11-21T00:39:51.870Z,77114.44
2022-11-21T00:42:18.403Z,77120.22
2022-11-21T00:44:44.975Z,77122.16
2022-11-21T00:47:11.508Z,77126.00
2022-11-21T00:49:38.113Z,77126.00
2022-11-21T00:52:04.795Z,77127.94
2022-11-21T00:54:31.351Z,77133.72
2022-11-21T00:56:57.881Z,77153.00
2022-11-21T00:59:24.429Z,77174.19
2022-11-21T01:01:53.007Z,77185.75
2022-11-21T01:04:19.593Z,77191.53
2022-11-21T01:06:46.093Z,77201.19
2022-11-21T01:09:12.686Z,77195.41
2022-11-21T01:11:39.178Z,77199.25
2022-11-21T01:14:06.143Z,77197.31
2022-11-21T01:16:33.075Z,77191.53
2022-11-21T01:18:59.737Z,77187.69
2022-11-21T01:21:27.419Z,77185.75
2022-11-21T01:23:54.336Z,77191.53
2022-11-21T01:26:22.036Z,77183.84
2022-11-21T01:28:48.876Z,77185.75
2022-11-21T01:31:26.048Z,77193.47
2022-11-21T01:33:52.622Z,77191.53
2022-11-21T01:36:20.405Z,77189.63
2022-11-21T01:38:48.138Z,77179.97
2022-11-21T01:41:16.870Z,77187.69
2022-11-21T01:43:43.524Z,77185.75
2022-11-21T01:46:28.272Z,77191.53
2022-11-21T01:48:54.778Z,77183.84
2022-11-21T01:51:27.239Z,77183.84
2022-11-21T01:54:06.617Z,77187.69
2022-11-21T01:56:35.631Z,77185.75
2022-11-21T01:59:03.293Z,77189.63
2022-11-21T02:01:30.081Z,77183.84
2022-11-21T02:03:57.081Z,77189.63
2022-11-21T02:06:24.750Z,77195.41
2022-11-21T02:08:51.477Z,77185.75
2022-11-21T02:11:21.057Z,77164.56
2022-11-21T02:13:47.661Z,77158.78
2022-11-21T02:16:14.362Z,77154.91
2022-11-21T02:18:40.916Z,77153.00
2022-11-21T02:21:22.095Z,77149.13
2022-11-21T02:23:57.721Z,77141.44
2022-11-21T02:26:26.899Z,77133.72
2022-11-21T02:28:54.143Z,77118.31
2022-11-21T02:31:20.690Z,77114.44
2022-11-21T02:33:47.220Z,77106.75
2022-11-21T02:36:37.655Z,77099.03
2022-11-21T02:39:05.958Z,77093.25
2022-11-21T02:41:34.314Z,77087.47
2022-11-21T02:44:15.994Z,77091.31
2022-11-21T02:46:49.781Z,77083.59
2022-11-21T02:49:19.947Z,77079.75
2022-11-21T02:51:46.447Z,77095.19
2022-11-21T02:54:13.050Z,77099.03
2022-11-21T02:56:39.583Z,77093.25
2022-11-21T02:59:06.092Z,77095.19
2022-11-21T03:01:32.858Z,77099.03
2022-11-21T03:03:59.385Z,77102.88
2022-11-21T03:06:26.151Z,77102.88
2022-11-21T03:08:52.888Z,77104.81
2022-11-21T03:11:19.501Z,77106.75
2022-11-21T03:13:46.144Z,77091.31
2022-11-21T03:16:15.818Z,77073.97
2022-11-21T03:18:42.331Z,77068.19
2022-11-21T03:21:08.901Z,77056.63
2022-11-21T03:23:35.456Z,77045.06
2022-11-21T03:26:02.038Z,77037.34
2022-11-21T03:28:28.536Z,77029.66
2022-11-21T03:30:55.143Z,77033.50
2022-11-21T03:33:21.655Z,77029.66
2022-11-21T03:35:48.272Z,77016.16
2022-11-21T03:38:14.992Z,77014.22
2022-11-21T03:40:41.527Z,77014.22
2022-11-21T03:43:08.341Z,77006.53
2022-11-21T03:45:34.892Z,77006.53
2022-11-21T03:48:01.395Z,77010.38
2022-11-21T03:50:27.916Z,77027.72
2022-11-21T03:52:54.499Z,77018.09
2022-11-21T03:55:21.032Z,77016.16
2022-11-21T03:57:48.087Z,77014.22
2022-11-21T04:00:15.145Z,77006.53
2022-11-21T04:02:41.643Z,77014.22
2022-11-21T04:05:08.337Z,77012.31
2022-11-21T04:07:34.951Z,77006.53
2022-11-21T04:10:01.488Z,77006.53
2022-11-21T04:12:28.061Z,77004.59
2022-11-21T04:14:54.546Z,77004.59
2022-11-21T04:17:21.066Z,77006.53
2022-11-21T04:19:47.597Z,77008.44
2022-11-21T04:22:14.146Z,77010.38
2022-11-21T04:24:40.859Z,77006.53
2022-11-21T04:27:07.511Z,77002.66
2022-11-21T04:29:34.054Z,77002.66
2022-11-21T04:32:00.684Z,76996.88
2022-11-21T04:34:27.606Z,77010.38
2022-11-21T04:36:54.292Z,77006.53
2022-11-21T04:39:20.835Z,77006.53
2022-11-21T04:41:47.368Z,77010.38
2022-11-21T04:44:14.021Z,77010.38
2022-11-21T04:46:40.525Z,77014.22
2022-11-21T04:49:07.076Z,77016.16
2022-11-21T04:51:33.709Z,77014.22
2022-11-21T04:54:00.190Z,77014.22
2022-11-21T04:56:26.757Z,77014.22
2022-11-21T04:58:53.490Z,77021.94
2022-11-21T05:01:20.096Z,77018.09
2022-11-21T05:03:46.665Z,77014.22
2022-11-21T05:06:13.237Z,77010.38
2022-11-21T05:08:39.783Z,77000.75
2022-11-21T05:11:25.140Z,76991.09
2022-11-21T05:13:52.970Z,76993.03
2022-11-21T05:16:19.543Z,76983.38
2022-11-21T05:18:46.059Z,76987.25
2022-11-21T05:21:12.698Z,76996.88
2022-11-21T05:23:39.314Z,76993.03
2022-11-21T05:26:05.827Z,77004.59
2022-11-21T05:28:32.361Z,77010.38
2022-11-21T05:30:58.883Z,77014.22
2022-11-21T05:33:25.424Z,77006.53
2022-11-21T05:35:52.054Z,76998.81
2022-11-21T05:38:18.591Z,76991.09
2022-11-21T05:40:45.332Z,76994.97
2022-11-21T05:43:31.047Z,76987.25
2022-11-21T05:45:57.677Z,76973.75
2022-11-21T05:48:24.212Z,76967.97
2022-11-21T05:50:50.810Z,76964.13
2022-11-21T05:53:17.753Z,76966.03
2022-11-21T05:55:44.640Z,76964.13
2022-11-21T05:58:11.578Z,76966.03
2022-11-21T06:00:38.445Z,76969.91
2022-11-21T06:03:24.763Z,76962.19
2022-11-21T06:05:51.405Z,76964.13
2022-11-21T06:08:17.935Z,76962.19
2022-11-21T06:10:44.892Z,76966.03
2022-11-21T06:13:22.152Z,76967.97
2022-11-21T06:15:58.492Z,76964.13
2022-11-21T06:18:25.426Z,76960.25
2022-11-21T06:20:52.046Z,76964.13
2022-11-21T06:23:18.560Z,76964.13
2022-11-21T06:25:45.252Z,76966.03
2022-11-21T06:28:11.906Z,76964.13
2022-11-21T06:30:38.821Z,76964.13
2022-11-21T06:33:06.230Z,76954.47
2022-11-21T06:35:33.063Z,76960.25
2022-11-21T06:37:59.596Z,76956.41
2022-11-21T06:40:26.183Z,76948.69
2022-11-21T06:42:52.662Z,76948.69
2022-11-21T06:45:19.194Z,76944.84
2022-11-21T06:47:45.668Z,76941.00
2022-11-21T06:50:12.156Z,76941.00
2022-11-21T06:52:38.688Z,76941.00
2022-11-21T06:55:06.076Z,76941.00
2022-11-21T06:57:32.898Z,76927.50
2022-11-21T06:59:59.434Z,76929.44
2022-11-21T07:02:27.270Z,76921.72
2022-11-21T07:04:54.077Z,76914.00
2022-11-21T07:07:20.637Z,76906.31
2022-11-21T07:09:48.252Z,76902.44
2022-11-21T07:12:33.604Z,76890.88
2022-11-21T07:15:00.170Z,76875.47
2022-11-21T07:17:26.738Z,76877.41
2022-11-21T07:19:53.313Z,76861.97
2022-11-21T07:22:19.966Z,76856.19
2022-11-21T07:24:46.587Z,76848.47
2022-11-21T07:27:13.223Z,76840.78
2022-11-21T07:29:39.845Z,76833.06
2022-11-21T07:32:06.317Z,76835.00
2022-11-21T07:34:32.905Z,76829.22
2022-11-21T07:36:59.413Z,76825.34
2022-11-21T07:39:26.270Z,76813.78
2022-11-21T07:41:52.925Z,76802.22
2022-11-21T07:44:19.442Z,76794.53
2022-11-21T07:46:45.965Z,76767.53
2022-11-21T07:49:12.478Z,76752.13
2022-11-21T07:51:39.109Z,76750.19
2022-11-21T07:54:06.142Z,76736.72
2022-11-21T07:56:32.686Z,76725.16
2022-11-21T07:58:59.179Z,76707.81
2022-11-21T08:01:25.928Z,76698.16
2022-11-21T08:03:52.473Z,76705.88
2022-11-21T08:06:19.055Z,76686.59
2022-11-21T08:08:45.680Z,76659.63
2022-11-21T08:11:12.204Z,76646.13
2022-11-21T08:13:38.954Z,76634.56
2022-11-21T08:16:05.807Z,76632.66
2022-11-21T08:18:32.591Z,76615.31
2022-11-21T08:21:01.105Z,76605.66
2022-11-21T08:23:27.568Z,76594.09
2022-11-21T08:25:54.071Z,76590.25
2022-11-21T08:28:20.541Z,76576.75
2022-11-21T08:30:47.109Z,76547.84
2022-11-21T08:33:13.579Z,76524.72
2022-11-21T08:35:42.173Z,76515.09
2022-11-21T08:38:08.803Z,76509.31
2022-11-21T08:40:35.788Z,76486.19
2022-11-21T08:43:03.766Z,76466.94
2022-11-21T08:45:30.313Z,76451.50
2022-11-21T08:47:56.855Z,76436.09
2022-11-21T08:50:24.166Z,76409.13
2022-11-21T08:52:50.765Z,76389.84
2022-11-21T08:55:17.545Z,76384.06
2022-11-21T08:57:44.137Z,76374.44
2022-11-21T09:00:14.648Z,76355.16
2022-11-21T09:02:41.144Z,76357.09
2022-11-21T09:05:08.009Z,76343.59
2022-11-21T09:07:34.613Z,76324.34
2022-11-21T09:10:01.151Z,76318.56
2022-11-21T09:12:27.683Z,76289.66
2022-11-21T09:15:12.923Z,76268.44
2022-11-21T09:17:58.686Z,76297.34
2022-11-21T09:20:25.315Z,76293.50
2022-11-21T09:22:52.201Z,76293.50
2022-11-21T09:25:18.713Z,76310.84
2022-11-21T09:27:45.253Z,76301.22
2022-11-21T09:30:11.918Z,76291.56
2022-11-21T09:32:38.543Z,76287.72
2022-11-21T09:35:05.363Z,76281.94
2022-11-21T09:37:36.604Z,76270.38
2022-11-21T09:40:03.497Z,76272.31
2022-11-21T09:42:30.251Z,76235.69
2022-11-21T09:45:19.491Z,76243.41
2022-11-21T09:47:47.752Z,76224.13
2022-11-21T09:50:14.424Z,76204.88
2022-11-21T09:52:52.967Z,76199.09
2022-11-21T09:55:52.273Z,76177.91
2022-11-21T09:58:18.708Z,76170.19
2022-11-21T10:00:45.201Z,76147.06
2022-11-21T10:03:13.916Z,76123.94
2022-11-21T10:05:51.981Z,76112.38
2022-11-21T10:08:18.594Z,76066.13
2022-11-21T10:10:54.923Z,76033.38
2022-11-21T10:13:27.667Z,76017.97
2022-11-21T10:16:09.229Z,76008.34
2022-11-21T10:18:38.890Z,75992.94
2022-11-21T10:21:05.447Z,75962.09
2022-11-21T10:24:00.298Z,75942.84
2022-11-21T10:26:45.338Z,75877.31
2022-11-21T10:29:11.832Z,75844.56
2022-11-21T10:31:40.136Z,75842.66
2022-11-21T10:34:18.773Z,75811.81
2022-11-21T10:36:48.642Z,75792.56
2022-11-21T10:39:29.288Z,75761.72
2022-11-21T10:41:55.892Z,75742.47
2022-11-21T10:44:40.920Z,75727.06
2022-11-21T10:47:27.877Z,75723.19
2022-11-21T10:50:00.132Z,75719.34
2022-11-21T10:52:28.563Z,75711.63
2022-11-21T10:55:04.227Z,75730.91
2022-11-21T10:57:39.506Z,75711.63
2022-11-21T11:00:15.087Z,75680.81
2022-11-21T11:02:43.119Z,75630.72
2022-11-21T11:05:15.793Z,75572.94
2022-11-21T11:07:42.389Z,75553.66
2022-11-21T11:10:27.580Z,75565.22
2022-11-21T11:13:38.793Z,75584.50
2022-11-21T11:16:05.793Z,75584.50
2022-11-21T11:18:37.355Z,75572.94
2022-11-21T11:21:23.593Z,75617.25
2022-11-21T11:23:50.999Z,75655.78
2022-11-21T11:26:28.217Z,75678.88
2022-11-21T11:29:08.221Z,75696.22
2022-11-21T11:32:07.073Z,75723.19
2022-11-21T11:34:41.254Z,75723.19
2022-11-21T11:37:21.216Z,75721.28
2022-11-21T11:40:06.668Z,75734.75
2022-11-21T11:42:54.598Z,75740.53
2022-11-21T11:45:45.523Z,75732.84
2022-11-21T11:48:12.294Z,75715.50
2022-11-21T11:51:05.139Z,75719.34
2022-11-21T11:53:35.149Z,75721.28
2022-11-21T11:56:22.065Z,75711.63
2022-11-21T11:59:01.925Z,75757.88
2022-11-21T12:01:35.703Z,75759.81
2022-11-21T12:04:06.081Z,75775.22
2022-11-21T12:09:53.137Z,75823.38
2022-11-21T12:12:25.859Z,75861.91
2022-11-21T12:15:13.877Z,75859.97
2022-11-21T12:17:43.816Z,75885.03
2022-11-21T12:20:30.661Z,75877.31
2022-11-21T12:22:57.632Z,75875.41
2022-11-21T12:25:27.311Z,75881.19
2022-11-21T12:27:56.199Z,75877.31
2022-11-21T12:30:41.366Z,75885.03
2022-11-21T12:33:22.217Z,75888.88
2022-11-21T12:36:17.376Z,75888.88
2022-11-21T12:38:45.191Z,75888.88
2022-11-21T12:41:33.636Z,75900.44
2022-11-21T12:44:18.970Z,75898.53
2022-11-21T12:47:01.489Z,75919.72
2022-11-21T12:50:18.940Z,75927.41
2022-11-21T12:53:15.694Z,75950.53
2022-11-21T12:55:42.491Z,75952.47
2022-11-21T12:58:11.619Z,75981.38
2022-11-21T13:00:46.934Z,75979.44
2022-11-21T13:03:28.873Z,75977.50
2022-11-21T13:05:57.198Z,75977.50
2022-11-21T13:08:31.487Z,75989.06
2022-11-21T13:11:25.834Z,75998.72
2022-11-21T13:13:59.555Z,76010.25
2022-11-21T13:16:37.103Z,76027.59
2022-11-21T13:19:12.859Z,76048.81
2022-11-21T13:21:46.193Z,76050.72
2022-11-21T13:24:32.788Z,76050.72
2022-11-21T13:26:59.331Z,76066.13
2022-11-21T13:29:26.122Z,76073.84
2022-11-21T13:31:52.851Z,76073.84
2022-11-21T13:34:31.599Z,76077.69
2022-11-21T13:36:58.475Z,76087.34
2022-11-21T13:39:26.964Z,76085.41
2022-11-21T13:42:19.909Z,76087.34
2022-11-21T13:44:47.573Z,76104.69
2022-11-21T13:47:19.886Z,76118.16
2022-11-21T13:49:49.216Z,76123.94
2022-11-21T13:52:15.672Z,76125.88
2022-11-21T13:55:03.043Z,76139.34
2022-11-21T13:57:42.231Z,76135.50
2022-11-21T14:00:21.216Z,76150.91
2022-11-21T14:02:57.694Z,76158.63
2022-11-21T14:05:43.674Z,76154.78
2022-11-21T14:08:19.780Z,76154.78
2022-11-21T14:10:47.497Z,76162.47
2022-11-21T14:13:21.193Z,76166.34
2022-11-21T14:15:59.441Z,76170.19
2022-11-21T14:18:26.692Z,76174.03
2022-11-21T14:21:00.739Z,76174.03
2022-11-21T14:23:32.634Z,76174.03
2022-11-21T14:26:03.586Z,76174.03
2022-11-21T14:28:31.549Z,76174.03
2022-11-21T14:31:01.930Z,76166.34
2022-11-21T14:33:32.525Z,76170.19
2022-11-21T14:36:03.876Z,76183.69
2022-11-21T14:38:32.951Z,76187.53
2022-11-21T14:41:35.048Z,76193.31
2022-11-21T14:44:02.071Z,76193.31
2022-11-21T14:46:36.369Z,76204.88
2022-11-21T14:49:15.649Z,76208.72
2022-11-21T14:51:48.215Z,76216.44
2022-11-21T14:54:17.592Z,76212.56
2022-11-21T14:56:47.075Z,76212.56
2022-11-21T14:59:24.894Z,76212.56
2022-11-21T15:02:02.741Z,76212.56
2022-11-21T15:04:31.557Z,76224.13
2022-11-21T15:06:58.442Z,76228.00
2022-11-21T15:12:13.574Z,76222.22
2022-11-21T15:14:45.252Z,76235.69
2022-11-21T15:17:14.040Z,76239.56
2022-11-21T15:19:42.014Z,76254.97
2022-11-21T15:22:28.851Z,76258.81
2022-11-21T15:25:06.630Z,76266.53
2022-11-21T15:27:33.983Z,76274.22
2022-11-21T15:30:01.231Z,76289.66
2022-11-21T15:32:27.882Z,76297.34
2022-11-21T15:34:54.518Z,76301.22
2022-11-21T15:37:23.947Z,76310.84
2022-11-21T15:39:51.563Z,76322.41
2022-11-21T15:42:33.750Z,76324.34
2022-11-21T15:45:20.461Z,76326.25
2022-11-21T15:47:47.536Z,76333.97
2022-11-21T15:50:14.922Z,76322.41
2022-11-21T15:52:48.796Z,76328.19
2022-11-21T15:55:42.324Z,76335.91
2022-11-21T15:58:10.945Z,76339.75
2022-11-21T16:00:39.779Z,76347.47
2022-11-21T16:03:06.413Z,76343.59
2022-11-21T16:05:32.951Z,76355.16
2022-11-21T16:07:59.469Z,76355.16
2022-11-21T16:10:27.902Z,76357.09
2022-11-21T16:12:54.852Z,76362.88
2022-11-21T16:15:21.581Z,76374.44
2022-11-21T16:17:48.191Z,76382.13
2022-11-21T16:20:14.993Z,76386.00
2022-11-21T16:22:46.952Z,76389.84
2022-11-21T16:25:14.211Z,76393.69
2022-11-21T16:27:40.724Z,76397.56
2022-11-21T16:30:07.488Z,76409.13
2022-11-21T16:32:34.149Z,76418.75
2022-11-21T16:35:00.793Z,76428.38
2022-11-21T16:37:27.506Z,76432.25
2022-11-21T16:39:54.087Z,76441.88
2022-11-21T16:42:20.699Z,76449.59
2022-11-21T16:44:48.174Z,76459.22
2022-11-21T16:47:15.257Z,76453.44
2022-11-21T16:49:48.460Z,76466.94
2022-11-21T16:52:15.324Z,76466.94
2022-11-21T16:54:41.900Z,76470.78
2022-11-21T16:57:08.446Z,76482.34
2022-11-21T16:59:35.065Z,76495.84
2022-11-21T17:02:01.634Z,76497.75
2022-11-21T17:04:28.171Z,76509.31
2022-11-21T17:06:54.657Z,76517.03
2022-11-21T17:09:21.187Z,76532.44
2022-11-21T17:11:48.381Z,76547.84
2022-11-21T17:14:14.951Z,76547.84
2022-11-21T17:16:41.912Z,76563.28
2022-11-21T17:19:10.859Z,76567.13
2022-11-21T17:21:37.472Z,76567.13
2022-11-21T17:24:04.032Z,76563.28
2022-11-21T17:26:30.969Z,76561.34
2022-11-21T17:29:03.425Z,76576.75
2022-11-21T17:31:30.621Z,76572.91
2022-11-21T17:33:57.985Z,76567.13
2022-11-21T17:36:26.159Z,76574.84
2022-11-21T17:38:53.534Z,76576.75
2022-11-21T17:41:21.182Z,76586.41
2022-11-21T17:43:48.489Z,76590.25
2022-11-21T17:46:16.893Z,76582.53
2022-11-21T17:48:43.906Z,76574.84
2022-11-21T17:51:13.252Z,76570.97
2022-11-21T17:53:41.566Z,76567.13
2022-11-21T17:56:09.901Z,76561.34
2022-11-21T17:58:36.409Z,76561.34
2022-11-21T18:01:03.965Z,76567.13
2022-11-21T18:03:31.186Z,76567.13
2022-11-21T18:06:13.695Z,76574.84
2022-11-21T18:08:41.997Z,76582.53
2022-11-21T18:11:09.572Z,76594.09
2022-11-21T18:13:36.599Z,76597.97
2022-11-21T18:16:05.280Z,76605.66
2022-11-21T18:18:33.702Z,76609.53
2022-11-21T18:21:26.659Z,76623.00
2022-11-21T18:23:53.812Z,76630.72
2022-11-21T18:26:24.321Z,76624.94
2022-11-21T18:29:07.246Z,76628.78
2022-11-21T18:31:39.030Z,76624.94
2022-11-21T18:34:05.813Z,76609.53
2022-11-21T18:36:32.952Z,76621.09
2022-11-21T18:39:05.921Z,76603.75
2022-11-21T18:41:36.465Z,76619.16
2022-11-21T18:44:04.227Z,76628.78
2022-11-21T18:46:32.121Z,76632.66
2022-11-21T18:49:05.435Z,76634.56
2022-11-21T18:51:33.380Z,76642.28
2022-11-21T18:54:03.332Z,76642.28
2022-11-21T18:56:30.442Z,76642.28
2022-11-21T18:58:58.843Z,76648.06
2022-11-21T19:01:27.533Z,76651.91
2022-11-21T19:03:54.550Z,76659.63
2022-11-21T19:06:22.103Z,76667.34
2022-11-21T19:08:50.707Z,76669.25
2022-11-21T19:11:17.700Z,76673.13
2022-11-21T19:13:44.613Z,76678.91
2022-11-21T19:16:12.340Z,76686.59
2022-11-21T19:18:41.179Z,76688.53
2022-11-21T19:21:17.027Z,76698.16
2022-11-21T19:23:44.378Z,76680.81
2022-11-21T19:26:15.733Z,76678.91
2022-11-21T19:28:43.154Z,76682.75
2022-11-21T19:31:11.081Z,76682.75
2022-11-21T19:33:37.654Z,76684.69
2022-11-21T19:36:06.184Z,76663.47
2022-11-21T19:38:35.468Z,76669.25
2022-11-21T19:41:20.022Z,76690.47
2022-11-21T19:43:47.655Z,76707.81
2022-11-21T19:46:18.833Z,76717.44
2022-11-21T19:48:52.057Z,76730.94
2022-11-21T19:51:19.844Z,76736.72
2022-11-21T19:53:46.894Z,76729.00
2022-11-21T19:56:24.130Z,76730.94
2022-11-21T19:58:51.187Z,76721.28
2022-11-21T20:01:20.257Z,76721.28
2022-11-21T20:03:48.191Z,76719.38
2022-11-21T20:06:16.689Z,76725.16
2022-11-21T20:08:43.441Z,76725.16
2022-11-21T20:11:11.804Z,76725.16
2022-11-21T20:13:39.773Z,76729.00
2022-11-21T20:16:08.483Z,76732.84
2022-11-21T20:18:36.055Z,76729.00
2022-11-21T20:21:10.089Z,76729.00
2022-11-21T20:23:36.897Z,76729.00
2022-11-21T20:26:03.925Z,76730.94
2022-11-21T20:28:30.758Z,76719.38
2022-11-21T20:31:12.455Z,76700.09
2022-11-21T20:33:40.564Z,76698.16
2022-11-21T20:36:08.329Z,76696.25
2022-11-21T20:38:35.519Z,76688.53
2022-11-21T20:41:02.137Z,76686.59
2022-11-21T20:43:50.354Z,76673.13
2022-11-21T20:46:20.194Z,76667.34
2022-11-21T20:48:47.528Z,76671.19
2022-11-21T20:52:43.377Z,76667.34
2022-11-21T20:54:03.567Z,76671.19
2022-11-21T20:56:34.573Z,76682.75
2022-11-21T20:59:01.478Z,76667.34
2022-11-21T21:01:28.600Z,76665.41
2022-11-21T21:03:55.536Z,76663.47
2022-11-21T21:06:24.097Z,76659.63
2022-11-21T21:08:51.008Z,76671.19
2022-11-21T21:11:44.768Z,76675.03
2022-11-21T21:14:05.542Z,76678.91
2022-11-21T21:16:34.591Z,76686.59
2022-11-21T21:19:01.174Z,76694.31
2022-11-21T21:21:28.764Z,76698.16
2022-11-21T21:24:02.219Z,76705.88
2022-11-21T21:26:30.758Z,76702.03
2022-11-21T21:28:57.680Z,76707.81
2022-11-21T21:31:24.595Z,76709.72
2022-11-21T21:33:51.257Z,76698.16
2022-11-21T21:36:19.056Z,76698.16
2022-11-21T21:38:49.530Z,76705.88
2022-11-21T21:41:16.195Z,76711.66
2022-11-21T21:43:42.849Z,76707.81
2022-11-21T21:46:10.819Z,76719.38
2022-11-21T21:48:38.323Z,76715.50
2022-11-21T21:51:08.595Z,76725.16
2022-11-21T21:53:36.146Z,76725.16
2022-11-21T21:56:02.812Z,76717.44
2022-11-21T21:58:32.746Z,76713.59
2022-11-21T22:01:03.019Z,76703.94
2022-11-21T22:03:29.618Z,76696.25
2022-11-21T22:06:06.631Z,76690.47
2022-11-21T22:08:34.312Z,76678.91
2022-11-21T22:11:08.123Z,76667.34
2022-11-21T22:13:35.519Z,76657.69
2022-11-21T22:16:02.467Z,76655.78
2022-11-21T22:18:29.037Z,76651.91
2022-11-21T22:20:55.927Z,76648.06
2022-11-21T22:23:22.928Z,76638.44
2022-11-21T22:25:49.791Z,76626.88
2022-11-21T22:28:16.365Z,76628.78
2022-11-21T22:30:42.912Z,76613.38
2022-11-21T22:33:09.549Z,76597.97
2022-11-21T22:35:36.177Z,76594.09
2022-11-21T22:38:02.749Z,76578.69
2022-11-21T22:40:29.312Z,76563.28
2022-11-21T22:42:55.910Z,76553.63
2022-11-21T22:45:22.465Z,76545.94
2022-11-21T22:47:48.938Z,76540.16
2022-11-21T22:50:15.753Z,76532.44
2022-11-21T22:52:42.441Z,76515.09
2022-11-21T22:55:09.120Z,76505.47
2022-11-21T22:57:35.617Z,76486.19
2022-11-21T23:00:02.705Z,76470.78
2022-11-21T23:02:29.395Z,76451.50
2022-11-21T23:04:55.931Z,76432.25
2022-11-21T23:07:22.564Z,76420.69
2022-11-21T23:09:49.712Z,76412.97
2022-11-21T23:12:16.298Z,76412.97
2022-11-21T23:14:42.885Z,76403.34
2022-11-21T23:17:09.468Z,76393.69
2022-11-21T23:19:36.007Z,76389.84
2022-11-21T23:22:02.533Z,76397.56
2022-11-21T23:24:29.230Z,76393.69
2022-11-21T23:26:55.826Z,76391.78
2022-11-21T23:29:22.457Z,76389.84
2022-11-21T23:31:49.041Z,76387.91
2022-11-21T23:34:16.297Z,76386.00
2022-11-21T23:36:43.131Z,76382.13
2022-11-21T23:39:09.697Z,76374.44
2022-11-21T23:41:36.352Z,76378.28
2022-11-21T23:44:02.974Z,76376.34
2022-11-21T23:46:29.947Z,76378.28
2022-11-21T23:48:56.582Z,76376.34
2022-11-21T23:51:23.179Z,76370.56
2022-11-21T23:53:50.002Z,76366.72
2022-11-21T23:56:16.767Z,76378.28
2022-11-21T23:58:43.429Z,76387.91
